Terminal Aerodrome Forecast
Issued by NWS

Home | Current Version | Previous Version | Graphics & Text | Print | Product List | Glossary On
Versions: 1 2 3 4 5 6 7 8 9 10 11 12 13 14 15 16 17 18
000
FTUS43 KBIS 122300 RRA
TAFDIK
TAF
KDIK 122342Z 1300/1324 33013KT P6SM SCT100
     FM130200 33006KT P6SM SKC
     FM131100 32004KT P6SM SCT150
     FM131800 32015G25KT P6SM SCT150=

USA.gov is the U.S. government's official web portal to all federal, state and local government web resources and services.